sensor_id;sensor_type;location;lat;lon;timestamp;temperature;humidity
5675;DHT22;2860;54.284;10.158;2023-08-20T00:02:03;17.80;99.90
5675;DHT22;2860;54.284;10.158;2023-08-20T00:04:31;17.80;99.90
5675;DHT22;2860;54.284;10.158;2023-08-20T00:06:59;17.80;99.90
5675;DHT22;2860;54.284;10.158;2023-08-20T00:09:24;17.90;99.90
5675;DHT22;2860;54.284;10.158;2023-08-20T00:11:52;17.90;99.90
5675;DHT22;2860;54.284;10.158;2023-08-20T00:14:18;17.80;99.90
5675;DHT22;2860;54.284;10.158;2023-08-20T00:16:45;17.80;99.90
5675;DHT22;2860;54.284;10.158;2023-08-20T00:19:11;17.70;99.90
5675;DHT22;2860;54.284;10.158;2023-08-20T00:21:41;17.70;99.90
5675;DHT22;2860;54.284;10.158;2023-08-20T00:24:08;17.60;99.90
5675;DHT22;2860;54.284;10.158;2023-08-20T00:26:34;17.60;99.90
5675;DHT22;2860;54.284;10.158;2023-08-20T00:28:59;17.50;99.90
5675;DHT22;2860;54.284;10.158;2023-08-20T00:31:25;17.50;99.90
5675;DHT22;2860;54.284;10.158;2023-08-20T00:33:50;17.50;99.90
5675;DHT22;2860;54.284;10.158;2023-08-20T00:36:16;17.40;99.90
5675;DHT22;2860;54.284;10.158;2023-08-20T00:38:41;17.40;99.90
5675;DHT22;2860;54.284;10.158;2023-08-20T00:41:07;17.40;99.90
5675;DHT22;2860;54.284;10.158;2023-08-20T00:43:32;17.40;99.90
5675;DHT22;2860;54.284;10.158;2023-08-20T00:45:59;17.30;99.90
5675;DHT22;2860;54.284;10.158;2023-08-20T00:48:25;17.30;99.90
5675;DHT22;2860;54.284;10.158;2023-08-20T00:50:50;17.30;99.90
5675;DHT22;2860;54.284;10.158;2023-08-20T00:53:16;17.20;99.90
5675;DHT22;2860;54.284;10.158;2023-08-20T00:55:42;17.20;99.90
5675;DHT22;2860;54.284;10.158;2023-08-20T00:58:11;17.10;99.90
5675;DHT22;2860;54.284;10.158;2023-08-20T01:00:37;17.00;99.90
5675;DHT22;2860;54.284;10.158;2023-08-20T01:03:03;17.00;99.90
5675;DHT22;2860;54.284;10.158;2023-08-20T01:05:33;17.00;99.90
5675;DHT22;2860;54.284;10.158;2023-08-20T01:10:53;16.90;99.90
5675;DHT22;2860;54.284;10.158;2023-08-20T01:13:21;16.80;99.90
5675;DHT22;2860;54.284;10.158;2023-08-20T01:15:47;16.80;99.90
5675;DHT22;2860;54.284;10.158;2023-08-20T01:18:13;16.70;99.90
5675;DHT22;2860;54.284;10.158;2023-08-20T01:20:45;16.70;99.90
5675;DHT22;2860;54.284;10.158;2023-08-20T01:28:48;16.60;99.90
5675;DHT22;2860;54.284;10.158;2023-08-20T01:31:15;16.50;99.90
5675;DHT22;2860;54.284;10.158;2023-08-20T01:33:40;16.50;99.90
5675;DHT22;2860;54.284;10.158;2023-08-20T01:36:07;16.40;99.90
5675;DHT22;2860;54.284;10.158;2023-08-20T01:38:35;16.40;99.90
5675;DHT22;2860;54.284;10.158;2023-08-20T01:41:01;16.30;99.90
5675;DHT22;2860;54.284;10.158;2023-08-20T01:43:27;16.30;99.90
5675;DHT22;2860;54.284;10.158;2023-08-20T01:45:53;16.30;99.90
5675;DHT22;2860;54.284;10.158;2023-08-20T01:48:18;16.20;99.90
5675;DHT22;2860;54.284;10.158;2023-08-20T01:50:44;16.20;99.90
5675;DHT22;2860;54.284;10.158;2023-08-20T01:53:11;16.20;99.90
5675;DHT22;2860;54.284;10.158;2023-08-20T01:55:37;16.20;99.90
5675;DHT22;2860;54.284;10.158;2023-08-20T01:58:02;16.10;99.90
5675;DHT22;2860;54.284;10.158;2023-08-20T02:00:28;16.10;99.90
5675;DHT22;2860;54.284;10.158;2023-08-20T02:02:54;16.10;99.90
5675;DHT22;2860;54.284;10.158;2023-08-20T02:05:20;16.10;99.90
5675;DHT22;2860;54.284;10.158;2023-08-20T02:07:46;16.00;99.90
5675;DHT22;2860;54.284;10.158;2023-08-20T02:10:11;16.00;99.90
5675;DHT22;2860;54.284;10.158;2023-08-20T02:12:37;16.00;99.90
5675;DHT22;2860;54.284;10.158;2023-08-20T02:15:03;15.90;99.90
5675;DHT22;2860;54.284;10.158;2023-08-20T02:17:29;15.90;99.90
5675;DHT22;2860;54.284;10.158;2023-08-20T02:19:54;15.90;99.90
5675;DHT22;2860;54.284;10.158;2023-08-20T02:22:20;16.00;99.90
5675;DHT22;2860;54.284;10.158;2023-08-20T02:24:46;16.10;99.90
5675;DHT22;2860;54.284;10.158;2023-08-20T02:27:11;16.10;99.90
5675;DHT22;2860;54.284;10.158;2023-08-20T02:29:37;16.20;99.90
5675;DHT22;2860;54.284;10.158;2023-08-20T02:32:02;16.30;99.90
5675;DHT22;2860;54.284;10.158;2023-08-20T02:34:28;16.40;99.90
5675;DHT22;2860;54.284;10.158;2023-08-20T02:36:53;16.40;99.90
5675;DHT22;2860;54.284;10.158;2023-08-20T02:39:20;16.50;99.90
5675;DHT22;2860;54.284;10.158;2023-08-20T02:41:45;16.50;99.90
5675;DHT22;2860;54.284;10.158;2023-08-20T02:44:11;16.60;99.90
5675;DHT22;2860;54.284;10.158;2023-08-20T02:46:37;16.60;99.90
5675;DHT22;2860;54.284;10.158;2023-08-20T02:49:03;16.60;99.90
5675;DHT22;2860;54.284;10.158;2023-08-20T02:51:29;16.70;99.90
5675;DHT22;2860;54.284;10.158;2023-08-20T02:53:54;16.70;99.90
5675;DHT22;2860;54.284;10.158;2023-08-20T02:56:20;16.70;99.90
5675;DHT22;2860;54.284;10.158;2023-08-20T02:58:46;16.70;99.90
5675;DHT22;2860;54.284;10.158;2023-08-20T03:01:25;16.70;99.90
5675;DHT22;2860;54.284;10.158;2023-08-20T03:03:51;16.70;99.90
5675;DHT22;2860;54.284;10.158;2023-08-20T03:06:17;16.80;99.90
5675;DHT22;2860;54.284;10.158;2023-08-20T03:08:42;16.70;99.90
5675;DHT22;2860;54.284;10.158;2023-08-20T03:11:08;16.70;99.90
5675;DHT22;2860;54.284;10.158;2023-08-20T03:13:34;16.80;99.90
5675;DHT22;2860;54.284;10.158;2023-08-20T03:15:59;16.80;99.90
5675;DHT22;2860;54.284;10.158;2023-08-20T03:18:25;16.80;99.90
5675;DHT22;2860;54.284;10.158;2023-08-20T03:20:50;16.80;99.90
5675;DHT22;2860;54.284;10.158;2023-08-20T03:23:16;16.80;99.90
5675;DHT22;2860;54.284;10.158;2023-08-20T03:25:41;16.90;99.90
5675;DHT22;2860;54.284;10.158;2023-08-20T03:28:07;16.80;99.90
5675;DHT22;2860;54.284;10.158;2023-08-20T03:30:32;16.80;99.90
5675;DHT22;2860;54.284;10.158;2023-08-20T03:32:59;16.90;99.90
5675;DHT22;2860;54.284;10.158;2023-08-20T03:35:24;16.90;99.90
5675;DHT22;2860;54.284;10.158;2023-08-20T03:37:50;16.90;99.90
5675;DHT22;2860;54.284;10.158;2023-08-20T03:40:15;16.90;99.90
5675;DHT22;2860;54.284;10.158;2023-08-20T03:42:41;16.90;99.90
5675;DHT22;2860;54.284;10.158;2023-08-20T03:45:07;16.90;99.90
5675;DHT22;2860;54.284;10.158;2023-08-20T03:47:33;16.90;99.90
5675;DHT22;2860;54.284;10.158;2023-08-20T03:49:59;16.90;99.90
5675;DHT22;2860;54.284;10.158;2023-08-20T03:52:24;16.90;99.90
5675;DHT22;2860;54.284;10.158;2023-08-20T03:54:50;16.90;99.90
5675;DHT22;2860;54.284;10.158;2023-08-20T03:57:16;16.90;99.90
5675;DHT22;2860;54.284;10.158;2023-08-20T03:59:41;16.90;99.90
5675;DHT22;2860;54.284;10.158;2023-08-20T04:02:07;16.90;99.90
5675;DHT22;2860;54.284;10.158;2023-08-20T04:04:32;16.90;99.90
5675;DHT22;2860;54.284;10.158;2023-08-20T04:06:58;16.90;99.90
5675;DHT22;2860;54.284;10.158;2023-08-20T04:09:23;16.90;99.90
5675;DHT22;2860;54.284;10.158;2023-08-20T04:11:49;16.80;99.90
5675;DHT22;2860;54.284;10.158;2023-08-20T04:14:15;16.80;99.90
5675;DHT22;2860;54.284;10.158;2023-08-20T04:16:40;16.80;99.90
5675;DHT22;2860;54.284;10.158;2023-08-20T04:19:06;16.90;99.90
5675;DHT22;2860;54.284;10.158;2023-08-20T04:21:31;16.90;99.90
5675;DHT22;2860;54.284;10.158;2023-08-20T04:23:57;16.90;99.90
5675;DHT22;2860;54.284;10.158;2023-08-20T04:26:22;16.80;99.90
5675;DHT22;2860;54.284;10.158;2023-08-20T04:28:47;16.80;99.90
5675;DHT22;2860;54.284;10.158;2023-08-20T04:31:13;16.90;99.90
5675;DHT22;2860;54.284;10.158;2023-08-20T04:33:38;16.90;99.90
5675;DHT22;2860;54.284;10.158;2023-08-20T04:36:04;16.90;99.90
5675;DHT22;2860;54.284;10.158;2023-08-20T04:38:30;17.00;99.90
5675;DHT22;2860;54.284;10.158;2023-08-20T04:40:55;17.00;99.90
5675;DHT22;2860;54.284;10.158;2023-08-20T04:43:21;17.00;99.90
5675;DHT22;2860;54.284;10.158;2023-08-20T04:45:46;17.10;99.90
5675;DHT22;2860;54.284;10.158;2023-08-20T04:48:12;17.10;99.90
5675;DHT22;2860;54.284;10.158;2023-08-20T04:50:37;17.00;99.90
5675;DHT22;2860;54.284;10.158;2023-08-20T04:53:03;17.00;99.90
5675;DHT22;2860;54.284;10.158;2023-08-20T04:55:29;17.00;99.90
5675;DHT22;2860;54.284;10.158;2023-08-20T04:57:54;17.00;99.90
5675;DHT22;2860;54.284;10.158;2023-08-20T05:00:21;17.00;99.90
5675;DHT22;2860;54.284;10.158;2023-08-20T05:02:47;17.10;99.90
5675;DHT22;2860;54.284;10.158;2023-08-20T05:05:13;17.10;99.90
5675;DHT22;2860;54.284;10.158;2023-08-20T05:07:38;17.20;99.90
5675;DHT22;2860;54.284;10.158;2023-08-20T05:10:04;17.10;99.90
5675;DHT22;2860;54.284;10.158;2023-08-20T05:12:30;17.20;99.90
5675;DHT22;2860;54.284;10.158;2023-08-20T05:14:56;17.20;99.90
5675;DHT22;2860;54.284;10.158;2023-08-20T05:17:21;17.20;99.90
5675;DHT22;2860;54.284;10.158;2023-08-20T05:19:47;17.20;99.90
5675;DHT22;2860;54.284;10.158;2023-08-20T05:22:12;17.20;99.90
5675;DHT22;2860;54.284;10.158;2023-08-20T05:24:38;17.30;99.90
5675;DHT22;2860;54.284;10.158;2023-08-20T05:27:15;17.30;99.90
5675;DHT22;2860;54.284;10.158;2023-08-20T05:29:42;17.30;99.90
5675;DHT22;2860;54.284;10.158;2023-08-20T05:32:08;17.40;99.90
5675;DHT22;2860;54.284;10.158;2023-08-20T05:34:34;17.50;99.90
5675;DHT22;2860;54.284;10.158;2023-08-20T05:37:00;17.50;99.90
5675;DHT22;2860;54.284;10.158;2023-08-20T05:39:26;17.50;99.90
5675;DHT22;2860;54.284;10.158;2023-08-20T05:41:52;17.50;99.90
5675;DHT22;2860;54.284;10.158;2023-08-20T05:44:18;17.60;99.90
5675;DHT22;2860;54.284;10.158;2023-08-20T05:46:44;17.60;99.90
5675;DHT22;2860;54.284;10.158;2023-08-20T05:49:09;17.60;99.90
5675;DHT22;2860;54.284;10.158;2023-08-20T05:51:35;17.60;99.90
5675;DHT22;2860;54.284;10.158;2023-08-20T05:54:00;17.70;99.90
5675;DHT22;2860;54.284;10.158;2023-08-20T05:56:26;17.70;99.90
5675;DHT22;2860;54.284;10.158;2023-08-20T05:58:51;17.60;99.90
5675;DHT22;2860;54.284;10.158;2023-08-20T06:01:17;17.60;99.90
5675;DHT22;2860;54.284;10.158;2023-08-20T06:03:42;17.60;99.90
5675;DHT22;2860;54.284;10.158;2023-08-20T06:06:08;17.60;99.90
5675;DHT22;2860;54.284;10.158;2023-08-20T06:08:33;17.50;99.90
5675;DHT22;2860;54.284;10.158;2023-08-20T06:10:59;17.60;99.90
5675;DHT22;2860;54.284;10.158;2023-08-20T06:13:24;17.70;99.90
5675;DHT22;2860;54.284;10.158;2023-08-20T06:15:50;17.80;99.90
5675;DHT22;2860;54.284;10.158;2023-08-20T06:18:15;18.00;99.90
5675;DHT22;2860;54.284;10.158;2023-08-20T06:20:41;17.90;99.90
5675;DHT22;2860;54.284;10.158;2023-08-20T06:23:06;17.90;99.90
5675;DHT22;2860;54.284;10.158;2023-08-20T06:25:32;18.00;99.90
5675;DHT22;2860;54.284;10.158;2023-08-20T06:27:57;18.10;99.90
5675;DHT22;2860;54.284;10.158;2023-08-20T06:30:23;18.10;99.90
5675;DHT22;2860;54.284;10.158;2023-08-20T06:32:48;18.20;99.90
5675;DHT22;2860;54.284;10.158;2023-08-20T06:35:14;18.30;99.90
5675;DHT22;2860;54.284;10.158;2023-08-20T06:37:39;18.50;99.90
5675;DHT22;2860;54.284;10.158;2023-08-20T06:40:07;18.80;99.90
5675;DHT22;2860;54.284;10.158;2023-08-20T06:42:32;19.00;99.90
5675;DHT22;2860;54.284;10.158;2023-08-20T06:44:58;19.10;99.90
5675;DHT22;2860;54.284;10.158;2023-08-20T06:47:23;19.10;99.90
5675;DHT22;2860;54.284;10.158;2023-08-20T06:49:50;19.20;99.90
5675;DHT22;2860;54.284;10.158;2023-08-20T06:52:15;19.30;99.90
5675;DHT22;2860;54.284;10.158;2023-08-20T06:54:41;19.50;99.90
5675;DHT22;2860;54.284;10.158;2023-08-20T06:57:06;19.50;99.90
5675;DHT22;2860;54.284;10.158;2023-08-20T06:59:32;19.60;99.90
5675;DHT22;2860;54.284;10.158;2023-08-20T07:01:57;19.70;99.90
5675;DHT22;2860;54.284;10.158;2023-08-20T07:04:23;19.60;99.90
5675;DHT22;2860;54.284;10.158;2023-08-20T07:06:50;19.50;99.90
5675;DHT22;2860;54.284;10.158;2023-08-20T07:09:15;19.50;99.90
5675;DHT22;2860;54.284;10.158;2023-08-20T07:11:41;19.60;99.90
5675;DHT22;2860;54.284;10.158;2023-08-20T07:14:07;19.70;99.90
5675;DHT22;2860;54.284;10.158;2023-08-20T07:16:32;19.60;99.90
5675;DHT22;2860;54.284;10.158;2023-08-20T07:18:58;19.40;99.90
5675;DHT22;2860;54.284;10.158;2023-08-20T07:21:23;19.40;99.90
5675;DHT22;2860;54.284;10.158;2023-08-20T07:23:49;19.40;99.90
5675;DHT22;2860;54.284;10.158;2023-08-20T07:26:14;19.50;99.90
5675;DHT22;2860;54.284;10.158;2023-08-20T07:28:40;19.50;99.90
5675;DHT22;2860;54.284;10.158;2023-08-20T07:31:31;19.50;99.90
5675;DHT22;2860;54.284;10.158;2023-08-20T07:33:58;19.50;99.90
5675;DHT22;2860;54.284;10.158;2023-08-20T07:36:25;19.70;99.90
5675;DHT22;2860;54.284;10.158;2023-08-20T07:38:51;19.80;99.90
5675;DHT22;2860;54.284;10.158;2023-08-20T07:41:18;19.80;99.90
5675;DHT22;2860;54.284;10.158;2023-08-20T07:43:45;19.80;99.90
5675;DHT22;2860;54.284;10.158;2023-08-20T07:46:11;19.80;99.90
5675;DHT22;2860;54.284;10.158;2023-08-20T07:48:36;19.90;99.90
5675;DHT22;2860;54.284;10.158;2023-08-20T07:51:02;20.10;99.90
5675;DHT22;2860;54.284;10.158;2023-08-20T07:53:28;20.20;99.90
5675;DHT22;2860;54.284;10.158;2023-08-20T07:55:54;20.40;99.90
5675;DHT22;2860;54.284;10.158;2023-08-20T07:58:19;20.40;99.90
5675;DHT22;2860;54.284;10.158;2023-08-20T08:00:45;20.70;99.90
5675;DHT22;2860;54.284;10.158;2023-08-20T08:03:11;20.80;99.90
5675;DHT22;2860;54.284;10.158;2023-08-20T08:05:36;21.00;99.90
5675;DHT22;2860;54.284;10.158;2023-08-20T08:08:02;21.30;99.90
5675;DHT22;2860;54.284;10.158;2023-08-20T08:10:28;21.50;99.90
5675;DHT22;2860;54.284;10.158;2023-08-20T08:12:54;21.50;99.90
5675;DHT22;2860;54.284;10.158;2023-08-20T08:15:20;21.50;99.90
5675;DHT22;2860;54.284;10.158;2023-08-20T08:17:45;21.60;99.90
5675;DHT22;2860;54.284;10.158;2023-08-20T08:20:11;21.70;99.90
5675;DHT22;2860;54.284;10.158;2023-08-20T08:22:37;21.80;99.90
5675;DHT22;2860;54.284;10.158;2023-08-20T08:25:02;22.10;99.90
5675;DHT22;2860;54.284;10.158;2023-08-20T08:27:28;22.00;99.90
5675;DHT22;2860;54.284;10.158;2023-08-20T08:29:53;21.80;99.90
5675;DHT22;2860;54.284;10.158;2023-08-20T08:32:19;21.60;99.90
5675;DHT22;2860;54.284;10.158;2023-08-20T08:34:44;21.30;99.90
5675;DHT22;2860;54.284;10.158;2023-08-20T08:37:10;21.30;99.90
5675;DHT22;2860;54.284;10.158;2023-08-20T08:39:36;21.40;99.90
5675;DHT22;2860;54.284;10.158;2023-08-20T08:42:04;21.50;99.90
5675;DHT22;2860;54.284;10.158;2023-08-20T08:44:33;21.40;99.90
5675;DHT22;2860;54.284;10.158;2023-08-20T08:47:00;21.10;99.90
5675;DHT22;2860;54.284;10.158;2023-08-20T08:49:26;20.90;99.90
5675;DHT22;2860;54.284;10.158;2023-08-20T08:51:54;20.70;99.90
5675;DHT22;2860;54.284;10.158;2023-08-20T08:54:22;20.60;99.90
5675;DHT22;2860;54.284;10.158;2023-08-20T08:56:47;20.50;99.90
5675;DHT22;2860;54.284;10.158;2023-08-20T08:59:13;20.60;99.90
5675;DHT22;2860;54.284;10.158;2023-08-20T09:01:39;20.70;99.90
5675;DHT22;2860;54.284;10.158;2023-08-20T09:04:06;21.00;99.90
5675;DHT22;2860;54.284;10.158;2023-08-20T09:06:50;21.30;99.90
5675;DHT22;2860;54.284;10.158;2023-08-20T09:09:20;21.80;99.90
5675;DHT22;2860;54.284;10.158;2023-08-20T09:11:46;22.20;99.90
5675;DHT22;2860;54.284;10.158;2023-08-20T09:14:21;22.70;99.90
5675;DHT22;2860;54.284;10.158;2023-08-20T09:17:00;23.20;99.90
5675;DHT22;2860;54.284;10.158;2023-08-20T09:19:36;23.50;99.90
5675;DHT22;2860;54.284;10.158;2023-08-20T09:22:04;23.60;99.90
5675;DHT22;2860;54.284;10.158;2023-08-20T09:24:38;23.60;99.90
5675;DHT22;2860;54.284;10.158;2023-08-20T09:27:04;23.70;99.90
5675;DHT22;2860;54.284;10.158;2023-08-20T09:29:43;23.70;99.90
5675;DHT22;2860;54.284;10.158;2023-08-20T09:32:17;23.90;99.90
5675;DHT22;2860;54.284;10.158;2023-08-20T09:34:43;24.20;99.90
5675;DHT22;2860;54.284;10.158;2023-08-20T09:37:15;24.50;99.90
5675;DHT22;2860;54.284;10.158;2023-08-20T09:39:41;24.80;99.90
5675;DHT22;2860;54.284;10.158;2023-08-20T09:42:07;24.90;99.90
5675;DHT22;2860;54.284;10.158;2023-08-20T09:44:35;24.90;99.90
5675;DHT22;2860;54.284;10.158;2023-08-20T09:47:04;24.80;99.90
5675;DHT22;2860;54.284;10.158;2023-08-20T09:49:36;24.70;99.90
5675;DHT22;2860;54.284;10.158;2023-08-20T09:52:05;24.70;99.90
5675;DHT22;2860;54.284;10.158;2023-08-20T09:54:39;24.70;99.90
5675;DHT22;2860;54.284;10.158;2023-08-20T09:57:14;24.70;99.90
5675;DHT22;2860;54.284;10.158;2023-08-20T09:59:45;24.70;99.90
5675;DHT22;2860;54.284;10.158;2023-08-20T10:02:12;24.90;99.90
5675;DHT22;2860;54.284;10.158;2023-08-20T10:04:39;24.80;99.90
5675;DHT22;2860;54.284;10.158;2023-08-20T10:07:05;24.50;99.90
5675;DHT22;2860;54.284;10.158;2023-08-20T10:09:30;24.40;99.90
5675;DHT22;2860;54.284;10.158;2023-08-20T10:11:56;24.10;99.90
5675;DHT22;2860;54.284;10.158;2023-08-20T10:14:22;23.80;99.90
5675;DHT22;2860;54.284;10.158;2023-08-20T10:16:47;23.40;99.90
5675;DHT22;2860;54.284;10.158;2023-08-20T10:19:15;23.10;99.90
5675;DHT22;2860;54.284;10.158;2023-08-20T10:21:45;23.20;99.90
5675;DHT22;2860;54.284;10.158;2023-08-20T10:24:19;23.50;99.90
5675;DHT22;2860;54.284;10.158;2023-08-20T10:26:46;23.70;99.90
5675;DHT22;2860;54.284;10.158;2023-08-20T10:29:34;24.00;99.90
5675;DHT22;2860;54.284;10.158;2023-08-20T10:32:00;24.30;99.90
5675;DHT22;2860;54.284;10.158;2023-08-20T10:34:32;24.60;99.90
5675;DHT22;2860;54.284;10.158;2023-08-20T10:37:03;24.50;99.90
5675;DHT22;2860;54.284;10.158;2023-08-20T10:39:29;24.60;99.90
5675;DHT22;2860;54.284;10.158;2023-08-20T10:42:22;24.80;99.90
5675;DHT22;2860;54.284;10.158;2023-08-20T10:47:22;25.00;99.90
5675;DHT22;2860;54.284;10.158;2023-08-20T10:49:54;24.90;99.90
5675;DHT22;2860;54.284;10.158;2023-08-20T10:52:22;24.70;99.90
5675;DHT22;2860;54.284;10.158;2023-08-20T10:54:50;24.40;99.90
5675;DHT22;2860;54.284;10.158;2023-08-20T10:57:16;24.30;99.90
5675;DHT22;2860;54.284;10.158;2023-08-20T10:59:42;24.20;99.90
5675;DHT22;2860;54.284;10.158;2023-08-20T11:02:14;24.20;99.90
5675;DHT22;2860;54.284;10.158;2023-08-20T11:04:41;24.30;99.90
5675;DHT22;2860;54.284;10.158;2023-08-20T11:07:06;24.50;99.90
5675;DHT22;2860;54.284;10.158;2023-08-20T11:09:33;24.60;99.90
5675;DHT22;2860;54.284;10.158;2023-08-20T11:11:59;24.40;99.90
5675;DHT22;2860;54.284;10.158;2023-08-20T11:14:24;24.30;99.90
5675;DHT22;2860;54.284;10.158;2023-08-20T11:16:50;24.30;99.90
5675;DHT22;2860;54.284;10.158;2023-08-20T11:19:22;24.40;99.90
5675;DHT22;2860;54.284;10.158;2023-08-20T11:21:48;24.70;99.90
5675;DHT22;2860;54.284;10.158;2023-08-20T11:24:14;24.90;99.90
5675;DHT22;2860;54.284;10.158;2023-08-20T11:26:40;25.10;99.90
5675;DHT22;2860;54.284;10.158;2023-08-20T11:29:10;25.30;99.90
5675;DHT22;2860;54.284;10.158;2023-08-20T11:31:38;25.40;99.90
5675;DHT22;2860;54.284;10.158;2023-08-20T11:34:04;25.50;99.90
5675;DHT22;2860;54.284;10.158;2023-08-20T11:36:30;25.80;99.90
5675;DHT22;2860;54.284;10.158;2023-08-20T11:38:56;25.90;99.90
5675;DHT22;2860;54.284;10.158;2023-08-20T11:41:23;25.60;99.90
5675;DHT22;2860;54.284;10.158;2023-08-20T11:43:50;25.30;99.90
5675;DHT22;2860;54.284;10.158;2023-08-20T11:46:20;24.90;99.90
5675;DHT22;2860;54.284;10.158;2023-08-20T11:48:59;24.60;99.90
5675;DHT22;2860;54.284;10.158;2023-08-20T11:51:29;24.80;99.90
5675;DHT22;2860;54.284;10.158;2023-08-20T11:53:55;25.00;99.90
5675;DHT22;2860;54.284;10.158;2023-08-20T11:56:21;25.20;99.90
5675;DHT22;2860;54.284;10.158;2023-08-20T11:58:50;25.50;99.90
5675;DHT22;2860;54.284;10.158;2023-08-20T12:01:20;25.60;99.90
5675;DHT22;2860;54.284;10.158;2023-08-20T12:03:45;25.90;99.90
5675;DHT22;2860;54.284;10.158;2023-08-20T12:06:21;26.10;99.90
5675;DHT22;2860;54.284;10.158;2023-08-20T12:09:28;26.10;99.90
5675;DHT22;2860;54.284;10.158;2023-08-20T12:11:54;25.90;99.90
5675;DHT22;2860;54.284;10.158;2023-08-20T12:14:21;25.70;99.90
5675;DHT22;2860;54.284;10.158;2023-08-20T12:16:47;25.40;99.90
5675;DHT22;2860;54.284;10.158;2023-08-20T12:19:13;25.30;99.90
5675;DHT22;2860;54.284;10.158;2023-08-20T12:21:40;25.20;99.90
5675;DHT22;2860;54.284;10.158;2023-08-20T12:24:06;24.90;99.90
5675;DHT22;2860;54.284;10.158;2023-08-20T12:26:32;24.70;99.90
5675;DHT22;2860;54.284;10.158;2023-08-20T12:28:57;24.60;99.90
5675;DHT22;2860;54.284;10.158;2023-08-20T12:31:23;24.70;99.90
5675;DHT22;2860;54.284;10.158;2023-08-20T12:33:48;24.90;99.90
5675;DHT22;2860;54.284;10.158;2023-08-20T12:36:14;25.20;99.90
5675;DHT22;2860;54.284;10.158;2023-08-20T12:38:39;25.40;99.90
5675;DHT22;2860;54.284;10.158;2023-08-20T12:41:06;25.50;99.90
5675;DHT22;2860;54.284;10.158;2023-08-20T12:43:32;25.60;99.90
5675;DHT22;2860;54.284;10.158;2023-08-20T12:45:57;25.50;99.90
5675;DHT22;2860;54.284;10.158;2023-08-20T12:48:23;25.50;99.90
5675;DHT22;2860;54.284;10.158;2023-08-20T12:50:48;25.50;99.90
5675;DHT22;2860;54.284;10.158;2023-08-20T12:53:14;25.20;99.90
5675;DHT22;2860;54.284;10.158;2023-08-20T12:55:39;24.70;99.90
5675;DHT22;2860;54.284;10.158;2023-08-20T12:58:05;24.30;99.90
5675;DHT22;2860;54.284;10.158;2023-08-20T13:00:31;24.00;99.90
5675;DHT22;2860;54.284;10.158;2023-08-20T13:03:25;23.70;99.90
5675;DHT22;2860;54.284;10.158;2023-08-20T13:05:53;23.50;99.90
5675;DHT22;2860;54.284;10.158;2023-08-20T13:08:19;23.40;99.90
5675;DHT22;2860;54.284;10.158;2023-08-20T13:10:50;23.40;99.90
5675;DHT22;2860;54.284;10.158;2023-08-20T13:13:20;23.50;99.90
5675;DHT22;2860;54.284;10.158;2023-08-20T13:15:46;23.50;99.90
5675;DHT22;2860;54.284;10.158;2023-08-20T13:18:12;23.60;99.90
5675;DHT22;2860;54.284;10.158;2023-08-20T13:20:39;23.70;99.90
5675;DHT22;2860;54.284;10.158;2023-08-20T13:23:05;23.90;99.90
5675;DHT22;2860;54.284;10.158;2023-08-20T13:25:30;24.00;99.90
5675;DHT22;2860;54.284;10.158;2023-08-20T13:27:56;24.20;99.90
5675;DHT22;2860;54.284;10.158;2023-08-20T13:30:21;24.40;99.90
5675;DHT22;2860;54.284;10.158;2023-08-20T13:32:47;24.60;99.90
5675;DHT22;2860;54.284;10.158;2023-08-20T13:35:12;24.70;99.90
5675;DHT22;2860;54.284;10.158;2023-08-20T13:37:42;24.80;99.90
5675;DHT22;2860;54.284;10.158;2023-08-20T13:40:08;24.70;99.90
5675;DHT22;2860;54.284;10.158;2023-08-20T13:42:35;24.60;99.90
5675;DHT22;2860;54.284;10.158;2023-08-20T13:45:01;24.40;99.90
5675;DHT22;2860;54.284;10.158;2023-08-20T13:47:26;24.10;99.90
5675;DHT22;2860;54.284;10.158;2023-08-20T13:49:52;23.90;99.90
5675;DHT22;2860;54.284;10.158;2023-08-20T13:52:17;23.90;99.90
5675;DHT22;2860;54.284;10.158;2023-08-20T13:54:43;24.00;99.90
5675;DHT22;2860;54.284;10.158;2023-08-20T13:57:08;24.10;99.90
5675;DHT22;2860;54.284;10.158;2023-08-20T13:59:34;24.20;99.90
5675;DHT22;2860;54.284;10.158;2023-08-20T14:02:00;24.40;99.90
5675;DHT22;2860;54.284;10.158;2023-08-20T14:04:25;24.50;99.90
5675;DHT22;2860;54.284;10.158;2023-08-20T14:06:51;24.50;99.90
5675;DHT22;2860;54.284;10.158;2023-08-20T14:09:16;24.50;99.90
5675;DHT22;2860;54.284;10.158;2023-08-20T14:11:44;24.50;99.90
5675;DHT22;2860;54.284;10.158;2023-08-20T14:14:09;24.50;99.90
5675;DHT22;2860;54.284;10.158;2023-08-20T14:16:35;24.40;99.90
5675;DHT22;2860;54.284;10.158;2023-08-20T14:19:00;24.40;99.90
5675;DHT22;2860;54.284;10.158;2023-08-20T14:21:26;24.50;99.90
5675;DHT22;2860;54.284;10.158;2023-08-20T14:23:51;24.60;99.90
5675;DHT22;2860;54.284;10.158;2023-08-20T14:26:17;24.70;99.90
5675;DHT22;2860;54.284;10.158;2023-08-20T14:28:43;24.80;99.90
5675;DHT22;2860;54.284;10.158;2023-08-20T14:31:09;24.70;99.90
5675;DHT22;2860;54.284;10.158;2023-08-20T14:33:34;24.60;99.90
5675;DHT22;2860;54.284;10.158;2023-08-20T14:36:00;24.60;99.90
5675;DHT22;2860;54.284;10.158;2023-08-20T14:38:25;24.60;99.90
5675;DHT22;2860;54.284;10.158;2023-08-20T14:40:51;24.60;99.90
5675;DHT22;2860;54.284;10.158;2023-08-20T14:43:16;24.60;99.90
5675;DHT22;2860;54.284;10.158;2023-08-20T14:45:42;24.70;99.90
5675;DHT22;2860;54.284;10.158;2023-08-20T14:48:07;24.80;99.90
5675;DHT22;2860;54.284;10.158;2023-08-20T14:50:33;24.90;99.90
5675;DHT22;2860;54.284;10.158;2023-08-20T14:53:00;25.00;99.90
5675;DHT22;2860;54.284;10.158;2023-08-20T14:55:26;25.00;99.90
5675;DHT22;2860;54.284;10.158;2023-08-20T14:57:52;24.90;99.90
5675;DHT22;2860;54.284;10.158;2023-08-20T15:00:18;25.10;99.90
5675;DHT22;2860;54.284;10.158;2023-08-20T15:02:44;25.20;99.90
5675;DHT22;2860;54.284;10.158;2023-08-20T15:05:10;25.20;99.90
5675;DHT22;2860;54.284;10.158;2023-08-20T15:07:36;25.30;99.90
5675;DHT22;2860;54.284;10.158;2023-08-20T15:10:05;25.20;99.90
5675;DHT22;2860;54.284;10.158;2023-08-20T15:12:33;25.10;99.90
5675;DHT22;2860;54.284;10.158;2023-08-20T15:15:00;24.90;99.90
5675;DHT22;2860;54.284;10.158;2023-08-20T15:17:25;24.90;99.90
5675;DHT22;2860;54.284;10.158;2023-08-20T15:19:51;24.90;99.90
5675;DHT22;2860;54.284;10.158;2023-08-20T15:22:17;25.00;99.90
5675;DHT22;2860;54.284;10.158;2023-08-20T15:24:42;24.90;99.90
5675;DHT22;2860;54.284;10.158;2023-08-20T15:27:08;24.80;99.90
5675;DHT22;2860;54.284;10.158;2023-08-20T15:29:33;24.30;99.90
5675;DHT22;2860;54.284;10.158;2023-08-20T15:31:59;23.90;99.90
5675;DHT22;2860;54.284;10.158;2023-08-20T15:34:24;23.60;99.90
5675;DHT22;2860;54.284;10.158;2023-08-20T15:36:50;23.50;99.90
5675;DHT22;2860;54.284;10.158;2023-08-20T15:39:16;23.50;99.90
5675;DHT22;2860;54.284;10.158;2023-08-20T15:41:44;23.50;99.90
5675;DHT22;2860;54.284;10.158;2023-08-20T15:44:11;23.70;99.90
5675;DHT22;2860;54.284;10.158;2023-08-20T15:46:37;23.80;99.90
5675;DHT22;2860;54.284;10.158;2023-08-20T15:49:03;23.80;99.90
5675;DHT22;2860;54.284;10.158;2023-08-20T15:51:29;23.90;99.90
5675;DHT22;2860;54.284;10.158;2023-08-20T15:53:54;23.80;99.90